• Join FlightAware (Why Join?)
  • Login
  • US Flag 
06:24PM EDT


 

Airport Tracker/Info


-or-


 

Live Flight TrackerFlight Track Log ✈ ASQ4252 ✈ 09-Jun-2013 ✈ KGSO - KIAD

Flight Track Log - Related Links

Times and Time Zones

All times are in EDT time to prevent confusion due to time zone crossing. See the ASQ4252 flight status page for this flight to view local times or setup timezone preferences in your user account.

Time Position Orientation Groundspeed Altitude Reporting Facility
EDT Latitude Longitude Course Direction KTS MPH feet Rate Location/Type
05:05PM 36.1036 -79.7825 49° Northeast 372 428 11,300  Level Washington Center
05:06PM 36.1586 -79.7031 49° Northeast 341 392 12,000 780 Climbing Washington Center
05:07PM 36.2308 -79.5986 49° Northeast 343 395 12,900 1,020 Climbing Washington Center
05:08PM 36.2903 -79.5064 62° Northeast 376 433 14,100 1,320 Climbing Washington Center
05:09PM 36.3647 -79.3939 51° Northeast 383 441 15,600 1,440 Climbing Washington Center
05:10PM 36.4389 -79.2969 46° Northeast 388 447 17,000 1,380 Climbing Washington Center
05:11PM 36.5147 -79.2022 45° Northeast 382 440 18,400 1,440 Climbing Washington Center
05:12PM 36.5661 -79.0883 61° Northeast 376 433 20,000 1,440 Climbing Washington Center
05:13PM 36.6356 -78.9931 48° Northeast 376 433 21,400 1,200 Climbing Washington Center
05:14PM 36.7008 -78.9000 49° Northeast 376 433 22,500 780 Climbing Washington Center
05:15PM 36.7789 -78.7972 47° Northeast 389 448 23,000 240 Climbing Washington Center
05:16PM 36.8736 -78.6792 45° Northeast 418 481 23,000  Level Washington Center
05:17PM 36.9600 -78.5681 46° Northeast 432 497 23,000  Level Washington Center
05:18PM 37.0444 -78.4386 51° Northeast 447 514 23,000  Level Washington Center
05:19PM 37.0978 -78.3000 64° Northeast 472 543 23,000 -120 Level Washington Center
05:20PM 37.1614 -78.1536 61° Northeast 477 549 22,800 -360 Descending Washington Center
05:21PM 37.2250 -78.0072 61° Northeast 477 549 22,300 -420 Descending Washington Center
05:22PM 37.2903 -77.8631 60° Northeast 471 542 22,000 -180 Descending Washington Center
05:23PM 37.3556 -77.7211 60° Northeast 466 536 22,000  Level Washington Center
05:24PM 37.4206 -77.5792 60° Northeast 466 536 22,000 -120 Level Washington Center
05:25PM 37.4875 -77.4344 60° Northeast 466 536 21,800 -660 Descending Washington Center
05:26PM 37.5522 -77.2972 59° Northeast 461 531 20,700 -1,560 Descending Washington Center
05:27PM 37.6228 -77.1650 56° Northeast 456 525 18,700 -2,100 Descending Washington Center
05:28PM 37.7339 -77.1147 20° North 415 478 16,600 -2,160 Descending Washington Center
05:29PM 37.8442 -77.1328 353° North 392 451 14,500 -1,860 Descending Washington Center
05:30PM 37.9350 -77.2083 327° Northwest 354 407 12,900 -1,620 Descending Washington Center
05:31PM 38.0133 -77.2839 323° Northwest 349 402 11,300 -1,320 Descending Washington Center
05:32PM 38.0914 -77.3594 323° Northwest 354 407 10,300 -660 Descending Washington Center
05:33PM 38.1636 -77.4167 328° Northwest 334 384 10,000 -480 Descending Washington Center
05:34PM 38.2450 -77.4158 360° North 295 339 9,400 -1,260 Descending Washington Center
05:35PM 38.3264 -77.4047 North 285 328 7,600 -1,860 Descending Washington Center
05:36PM 38.4036 -77.3933 North 285 328 5,700 -1,500 Descending Washington Center
05:37PM 38.4811 -77.3819 North 285 328 4,600 -900 Descending Washington Center
05:38PM 38.5583 -77.3731 North 279 321 4,000 -300 Descending Washington Center
05:39PM 38.6314 -77.3589 North 273 314 4,100  Climbing Washington Center
05:40PM 38.7086 -77.3581 360° North 273 314 4,000  Descending Washington Center
05:42PM 38.8333 -77.3500 North 252 290 4,100  Climbing Potomac TRACON
05:43PM 38.9000 -77.3500 360° North 241 277 4,100 -120 Level Potomac TRACON
05:44PM 38.9667 -77.3500 360° North 254 292 3,900  Descending Potomac TRACON
05:45PM 39.0333 -77.3333 11° North 237 273 4,100 60 Climbing Potomac TRACON
05:46PM 39.1167 -77.3500 351° North 237 273 4,100  Level Potomac TRACON
05:47PM 39.1667 -77.3500 360° North 238 274 4,100 -300 Level Potomac TRACON
05:48PM 39.2167 -77.4000 322° Northwest 247 284 3,600 -480 Descending Potomac TRACON
05:49PM 39.1833 -77.4333 218° Southwest 181 208 3,100 -300 Descending Potomac TRACON
05:50PM 39.1333 -77.4333 180° South 179 206 3,000 -240 Descending Potomac TRACON
05:51PM 39.0833 -77.4333 180° South 171 197 2,700 -600 Descending Potomac TRACON
05:52PM 39.0333 -77.4333 180° South 169 194 1,800 -840 Descending Potomac TRACON
05:53PM 38.9833 -77.4333 180° South 137 158 1,100 -720 Descending Potomac TRACON